Time;durP1;ratioP1;P1;durP2;ratioP2;P2;SDS_P1;SDS_P2;PMS_P1;PMS_P2;Temp;Humidity;BMP_temperature;BMP_pressure;BME280_temperature;BME280_humidity;BME280_pressure;Samples;Min_cycle;Max_cycle;Signal;HPM_P1;HPM_P2
2022/07/29 00:03:18;;;;;;;4.85;1.98;;;;;;;15.52;62.88;100510.14;2837465;82;21511;-89
2022/07/29 00:07:20;;;;;;;4.37;1.98;;;;;;;15.44;62.65;100512.75;2898975;81;21031;-89
2022/07/29 00:11:21;;;;;;;13.55;2.22;;;;;;;15.40;63.11;100518.08;2823564;81;21042;-88
2022/07/29 00:15:23;;;;;;;5.17;2.30;;;;;;;15.34;63.14;100521.38;2845658;81;21001;-88
2022/07/29 00:19:24;;;;;;;4.33;2.47;;;;;;;15.28;63.11;100519.63;2793747;82;21035;-88
2022/07/29 00:23:25;;;;;;;4.17;2.30;;;;;;;15.20;63.18;100523.56;2819575;83;21594;-90
2022/07/29 00:27:27;;;;;;;3.85;2.33;;;;;;;15.14;63.21;100521.50;2795385;82;21079;-89
2022/07/29 00:31:28;;;;;;;3.08;1.85;;;;;;;15.06;64.02;100522.72;2782082;82;21702;-89
2022/07/29 00:35:45;;;;;;;7.35;2.47;;;;;;;14.98;64.02;100523.47;2791609;82;21093;-87
2022/07/29 00:39:47;;;;;;;4.03;2.10;;;;;;;14.92;64.23;100520.05;2799473;82;21048;-89
2022/07/29 00:43:48;;;;;;;5.72;2.77;;;;;;;14.88;64.37;100515.48;2783810;83;21043;-89
2022/07/29 00:47:50;;;;;;;5.22;2.92;;;;;;;14.78;65.21;100522.73;2748670;83;21071;-88
2022/07/29 00:51:51;;;;;;;7.72;2.47;;;;;;;14.68;65.12;100518.21;2787023;83;21569;-88
2022/07/29 00:55:55;;;;;;;5.40;2.85;;;;;;;14.63;65.38;100509.78;2807111;82;21050;-89
2022/07/29 00:59:56;;;;;;;6.62;3.10;;;;;;;14.60;65.72;100511.91;2795799;83;21134;-89
2022/07/29 01:03:57;;;;;;;6.50;2.85;;;;;;;14.52;66.22;100509.47;2766076;83;21115;-89
2022/07/29 01:08:00;;;;;;;8.40;3.30;;;;;;;14.48;66.34;100511.23;2774816;83;21526;-88
2022/07/29 01:12:03;;;;;;;6.95;2.77;;;;;;;14.44;66.45;100509.34;2894474;81;21551;-87
2022/07/29 01:16:10;;;;;;;2.15;1.95;;;;;;;14.43;66.31;100512.53;2891260;81;21098;-88
2022/07/29 01:20:52;;;;;;;4.17;2.60;;;;;;;14.42;66.24;100500.14;2880763;81;21087;-88
2022/07/29 01:25:19;;;;;;;3.65;2.35;;;;;;;14.38;66.28;100496.08;2896256;81;21065;-86
2022/07/29 01:29:30;;;;;;;3.87;1.80;;;;;;;14.31;66.04;100490.94;2870995;81;21105;-90
2022/07/29 01:33:48;;;;;;;5.08;2.58;;;;;;;14.22;65.76;100485.95;2875241;81;21519;-89
2022/07/29 01:38:01;;;;;;;3.67;2.17;;;;;;;14.11;66.49;100476.27;2896449;81;21757;-89
2022/07/29 01:42:39;;;;;;;3.92;1.95;;;;;;;14.05;66.92;100473.33;2880800;81;21065;-89
2022/07/29 01:46:45;;;;;;;4.22;2.37;;;;;;;13.83;70.17;100477.53;2917111;81;21035;-89
2022/07/29 01:50:52;;;;;;;6.42;2.80;;;;;;;13.45;71.83;100468.53;2782134;83;21147;-88
2022/07/29 01:54:57;;;;;;;4.50;2.77;;;;;;;13.16;72.90;100469.81;2886055;81;21677;-89
2022/07/29 01:59:01;;;;;;;2.47;2.27;;;;;;;13.12;72.39;100463.89;2868678;81;21099;-88
2022/07/29 02:03:08;;;;;;;2.83;1.90;;;;;;;13.18;72.59;100453.16;2895875;80;21063;-88
2022/07/29 02:07:14;;;;;;;4.40;2.25;;;;;;;13.16;73.00;100451.95;2891808;81;21044;-88
2022/07/29 02:11:15;;;;;;;5.45;2.85;;;;;;;13.24;71.68;100437.42;2842427;83;21530;-88
2022/07/29 02:15:18;;;;;;;5.37;3.35;;;;;;;13.35;71.31;100439.11;2817833;83;21005;-89
2022/07/29 02:19:22;;;;;;;14.83;3.58;;;;;;;13.43;70.54;100433.10;2800203;83;21617;-87
2022/07/29 02:23:25;;;;;;;7.75;2.55;;;;;;;13.44;69.96;100429.44;2907892;81;20998;-88
2022/07/29 02:27:28;;;;;;;7.33;3.05;;;;;;;13.48;71.95;100437.52;2915693;81;21119;-88
2022/07/29 02:31:36;;;;;;;7.33;3.30;;;;;;;13.65;72.18;100433.28;2854580;80;22192;-87
2022/07/29 02:35:40;;;;;;;8.40;2.87;;;;;;;13.83;71.77;100433.89;2858250;80;21127;-87
2022/07/29 02:39:45;;;;;;;4.33;2.65;;;;;;;14.02;70.89;100430.83;2866914;81;21026;-88
2022/07/29 02:43:50;;;;;;;4.25;2.58;;;;;;;14.10;70.98;100429.11;2873308;81;21119;-89
2022/07/29 02:47:54;;;;;;;5.95;3.72;;;;;;;14.21;70.90;100429.94;2884741;81;21012;-88
2022/07/29 02:52:03;;;;;;;7.45;3.30;;;;;;;14.33;70.35;100427.92;2854274;81;21106;-87
2022/07/29 02:56:10;;;;;;;6.80;3.62;;;;;;;14.37;69.77;100427.97;2884725;81;21642;-91
2022/07/29 03:00:14;;;;;;;6.47;3.25;;;;;;;14.34;69.90;100437.13;2834544;82;21618;-89
2022/07/29 03:04:17;;;;;;;4.33;3.47;;;;;;;14.36;69.76;100432.49;2890802;80;21169;-87
2022/07/29 03:08:19;;;;;;;6.37;4.80;;;;;;;14.39;69.79;100437.55;2897996;80;21071;-90
2022/07/29 03:12:21;;;;;;;6.47;3.70;;;;;;;14.42;69.95;100435.91;2846697;81;21105;-90
2022/07/29 03:16:23;;;;;;;5.55;3.45;;;;;;;14.44;70.11;100439.76;2823601;80;21031;-88
2022/07/29 03:20:26;;;;;;;7.10;3.25;;;;;;;14.51;69.37;100444.03;2884647;80;21007;-88
2022/07/29 03:24:31;;;;;;;5.87;3.75;;;;;;;14.53;69.45;100443.38;2879462;81;21086;31
2022/07/29 03:28:33;;;;;;;6.87;4.65;;;;;;;14.48;69.63;100441.66;2819705;82;21086;-89
2022/07/29 03:32:35;;;;;;;7.60;3.87;;;;;;;14.50;69.73;100445.88;2792861;81;21068;-87
2022/07/29 03:36:36;;;;;;;7.92;4.00;;;;;;;14.54;69.84;100449.08;2757686;84;21015;-85
2022/07/29 03:40:54;;;;;;;12.10;3.12;;;;;;;14.62;69.80;100447.86;2808238;82;21039;-89
2022/07/29 03:44:58;;;;;;;13.08;3.25;;;;;;;14.62;68.79;100443.84;2781902;82;21034;-87
2022/07/29 03:49:03;;;;;;;17.00;5.12;;;;;;;14.56;68.22;100444.45;2805072;82;21313;-87
2022/07/29 03:53:04;;;;;;;10.43;4.47;;;;;;;14.50;69.20;100447.70;2811989;82;21153;-89
2022/07/29 03:57:07;;;;;;;7.05;3.12;;;;;;;14.45;69.26;100448.16;2751113;84;21618;-89
2022/07/29 04:01:09;;;;;;;8.18;3.12;;;;;;;14.45;70.47;100447.31;2770460;82;21130;-89
2022/07/29 04:05:15;;;;;;;15.85;5.28;;;;;;;14.49;71.14;100448.21;2703213;83;21051;-88
2022/07/29 04:09:16;;;;;;;5.65;3.52;;;;;;;14.43;72.10;100452.31;2770627;83;21008;-90
2022/07/29 04:14:13;;;;;;;7.62;4.58;;;;;;;14.85;71.83;100455.05;2761500;83;21052;-90
2022/07/29 04:18:14;;;;;;;8.58;3.80;;;;;;;15.56;71.46;100457.06;2753905;83;21570;-88
2022/07/29 04:31:30;;;;;;;;;;;;;;;19.46;64.39;100433.99;2632556;88;21163;-88
2022/07/29 04:35:34;;;;;;;8.43;3.67;;;;;;;20.44;61.61;100433.20;2621403;88;20513;-88
2022/07/29 04:39:35;;;;;;;11.43;4.12;;;;;;;20.71;58.08;100441.64;2635353;87;21039;-88
2022/07/29 04:43:37;;;;;;;7.28;3.02;;;;;;;20.94;57.83;100442.07;2622760;88;21155;-89
2022/07/29 04:47:38;;;;;;;7.10;3.70;;;;;;;21.26;57.60;100439.39;2646289;87;21127;-89
2022/07/29 04:51:39;;;;;;;5.58;4.30;;;;;;;21.23;55.68;100437.08;2622922;88;21146;-87
2022/07/29 04:55:41;;;;;;;7.00;3.77;;;;;;;21.07;55.72;100438.14;2696851;86;21063;-89
2022/07/29 04:59:42;;;;;;;7.58;3.58;;;;;;;20.96;56.48;100453.53;2720253;85;21051;-89
2022/07/29 05:03:43;;;;;;;5.78;3.52;;;;;;;21.06;57.41;100446.46;2667072;87;21433;-88
2022/07/29 05:07:45;;;;;;;5.08;3.05;;;;;;;20.89;56.66;100452.59;2582191;88;21118;-89
2022/07/29 05:11:46;;;;;;;5.85;3.85;;;;;;;20.57;56.68;100451.45;2673389;86;21048;-87
2022/07/29 05:15:47;;;;;;;11.30;4.58;;;;;;;20.25;57.40;100451.65;2653184;87;21696;-87
2022/07/29 05:19:51;;;;;;;42.95;6.60;;;;;;;19.89;58.23;100443.40;2632539;87;21075;-89
2022/07/29 05:23:52;;;;;;;8.18;3.98;;;;;;;19.70;58.79;100445.06;2663975;88;21055;-89
2022/07/29 05:27:54;;;;;;;10.82;4.03;;;;;;;19.50;59.41;100452.84;2639243;88;21471;-89
2022/07/29 05:31:55;;;;;;;48.02;35.92;;;;;;;19.43;60.50;100445.64;2655742;88;21392;-89
2022/07/29 05:35:57;;;;;;;10.08;4.72;;;;;;;19.69;60.45;100439.34;2634079;87;21001;-88
2022/07/29 05:39:58;;;;;;;13.25;9.78;;;;;;;20.00;59.36;100441.61;2605356;88;21059;-86
2022/07/29 05:43:59;;;;;;;8.70;4.62;;;;;;;20.25;58.96;100440.03;2629435;87;21597;-88
2022/07/29 05:48:01;;;;;;;5.10;3.77;;;;;;;20.81;58.27;100441.38;2649594;88;21063;-86
2022/07/29 05:52:02;;;;;;;12.60;6.95;;;;;;;21.11;56.80;100430.49;2638964;88;21056;-87
2022/07/29 05:56:05;;;;;;;15.03;11.38;;;;;;;21.12;56.90;100434.88;2622742;87;21343;-86
2022/07/29 06:00:07;;;;;;;5.30;3.77;;;;;;;21.49;56.68;100439.70;2651186;87;21586;-87
2022/07/29 06:04:09;;;;;;;8.58;5.15;;;;;;;21.89;55.44;100432.98;2637420;88;21046;-87
2022/07/29 06:08:10;;;;;;;10.40;6.42;;;;;;;22.10;54.74;100431.55;2697634;86;21051;-87
2022/07/29 06:12:11;;;;;;;5.58;3.52;;;;;;;22.41;54.05;100434.86;2711004;86;21026;-87
2022/07/29 06:16:13;;;;;;;5.50;4.33;;;;;;;22.75;53.59;100438.59;2748328;84;21113;-86
2022/07/29 06:20:14;;;;;;;9.40;5.70;;;;;;;23.14;53.31;100430.75;2700516;86;21070;-86
2022/07/29 06:24:16;;;;;;;6.80;3.60;;;;;;;23.37;51.96;100433.63;2648652;87;21138;-88
2022/07/29 06:28:17;;;;;;;8.90;3.27;;;;;;;23.20;52.03;100438.59;2661207;86;21432;-88
2022/07/29 06:32:18;;;;;;;6.28;4.62;;;;;;;22.97;52.64;100450.65;2659866;87;21077;-88
2022/07/29 06:36:20;;;;;;;7.60;3.85;;;;;;;22.67;53.43;100450.95;2647545;88;22282;-88
2022/07/29 06:44:42;;;;;;;5.15;3.20;;;;;;;22.20;54.47;100443.89;2687224;86;21060;-88
2022/07/29 06:48:44;;;;;;;6.67;3.40;;;;;;;22.18;54.97;100455.45;2671285;87;21672;-89
2022/07/29 06:52:45;;;;;;;9.05;3.60;;;;;;;22.20;55.07;100449.31;2684851;86;21062;-86
2022/07/29 06:56:47;;;;;;;8.68;3.30;;;;;;;22.11;55.05;100456.25;2658419;87;21099;-89
2022/07/29 07:00:48;;;;;;;4.92;3.25;;;;;;;;;;2662152;87;21090;-88
2022/07/29 07:04:50;;;;;;;10.13;3.05;;;;;;;22.26;54.92;100463.44;2660710;87;21143;-88
2022/07/29 07:08:52;;;;;;;7.75;3.22;;;;;;;22.46;54.65;100451.88;2627810;88;21090;-83
2022/07/29 07:12:53;;;;;;;4.40;2.30;;;;;;;22.70;53.95;100447.86;2645852;88;21026;-88
2022/07/29 07:16:54;;;;;;;7.12;3.95;;;;;;;22.86;53.88;100450.72;2637239;86;21079;-89
2022/07/29 07:20:57;;;;;;;6.75;3.42;;;;;;;22.93;53.07;100439.36;2682077;88;21063;-88
2022/07/29 07:24:59;;;;;;;6.35;3.15;;;;;;;23.12;53.28;100438.27;2637637;87;21127;-88
2022/07/29 07:29:00;;;;;;;6.17;3.12;;;;;;;23.61;52.74;100428.13;2675776;86;21058;-88
2022/07/29 07:33:01;;;;;;;3.47;2.05;;;;;;;23.97;51.44;100423.27;2697019;87;21059;-88
2022/07/29 07:37:02;;;;;;;8.23;5.65;;;;;;;24.11;50.86;100422.78;2612717;89;21108;-89
2022/07/29 07:41:04;;;;;;;4.70;2.90;;;;;;;24.08;50.54;100426.75;2649143;87;21656;-88
2022/07/29 07:45:09;;;;;;;8.08;2.33;;;;;;;24.31;50.45;100418.64;2649648;87;21075;-88
2022/07/29 07:49:10;;;;;;;17.30;11.80;;;;;;;24.82;50.18;100421.61;2622440;88;21073;-90
2022/07/29 07:53:12;;;;;;;5.22;3.35;;;;;;;25.41;48.84;100421.44;2647656;88;21505;-89
2022/07/29 07:57:14;;;;;;;4.95;1.60;;;;;;;25.76;48.00;100422.85;2647261;88;21100;-89
2022/07/29 08:01:18;;;;;;;3.87;2.20;;;;;;;26.19;47.07;100426.66;2630406;88;21080;-89
2022/07/29 08:05:20;;;;;;;4.45;2.12;;;;;;;26.32;46.80;100431.94;2694382;87;21081;-88
2022/07/29 08:09:22;;;;;;;8.75;2.52;;;;;;;26.42;46.41;100438.77;2710982;86;20999;-89
2022/07/29 08:13:31;;;;;;;2.30;1.82;;;;;;;26.74;46.78;100431.78;2635421;86;21157;-89
2022/07/29 08:17:29;;;;;;;6.83;3.40;;;;;;;26.91;46.77;100431.44;2690927;85;21130;-87
2022/07/29 08:21:31;;;;;;;4.50;2.15;;;;;;;26.99;46.92;100430.84;2712062;85;21003;-89
2022/07/29 08:25:33;;;;;;;3.47;1.90;;;;;;;27.20;46.47;100416.66;2697135;86;21027;-87
2022/07/29 08:29:34;;;;;;;4.28;1.98;;;;;;;27.32;46.24;100411.22;2673199;86;21095;-88
2022/07/29 08:33:35;;;;;;;5.17;2.62;;;;;;;27.36;46.62;100412.95;2667677;87;21058;-89
2022/07/29 08:37:37;;;;;;;10.10;3.40;;;;;;;27.38;47.51;100415.73;2628197;88;21015;-89
2022/07/29 08:41:38;;;;;;;4.45;2.02;;;;;;;27.41;47.13;100407.61;2664399;87;21096;-89
2022/07/29 08:45:49;;;;;;;12.05;3.62;;;;;;;27.58;46.94;100411.88;2723254;85;21110;-87
2022/07/29 08:49:51;;;;;;;14.70;3.47;;;;;;;27.38;48.07;100414.92;2584404;89;21056;-89
2022/07/29 08:53:55;;;;;;;6.08;2.52;;;;;;;27.14;48.43;100414.88;2680795;87;21107;-89
2022/07/29 08:57:57;;;;;;;4.05;2.27;;;;;;;27.10;47.91;100417.74;2632792;87;21086;-90
2022/07/29 09:01:59;;;;;;;6.10;2.17;;;;;;;26.91;47.81;100406.88;2567202;91;21110;-90
2022/07/29 09:06:02;;;;;;;3.12;2.37;;;;;;;26.86;48.25;100406.75;2586129;89;21472;-89
2022/07/29 09:10:05;;;;;;;5.58;2.77;;;;;;;26.90;48.30;100418.05;2603518;89;21083;-88
2022/07/29 09:14:07;;;;;;;14.47;8.25;;;;;;;26.92;48.46;100415.92;2688933;86;21106;-88
2022/07/29 09:18:08;;;;;;;4.25;2.25;;;;;;;27.01;48.27;100417.79;2667695;87;21559;-87
2022/07/29 09:22:10;;;;;;;5.78;2.85;;;;;;;27.06;48.32;100411.09;2719199;85;21065;-88
2022/07/29 09:26:14;;;;;;;9.70;3.05;;;;;;;27.18;48.50;100407.88;2647253;87;21111;-89
2022/07/29 09:30:15;;;;;;;3.92;2.55;;;;;;;27.20;48.13;100409.84;2650895;87;21098;-88
2022/07/29 09:34:29;;;;;;;5.83;2.60;;;;;;;27.13;48.08;100399.56;2645815;86;21096;-89
2022/07/29 09:38:31;;;;;;;5.90;3.47;;;;;;;27.18;48.28;100387.91;2634667;88;21080;-89
2022/07/29 09:42:33;;;;;;;14.43;2.33;;;;;;;27.31;48.29;100385.50;2712542;85;21091;-89
2022/07/29 09:46:35;;;;;;;5.22;2.58;;;;;;;27.35;48.09;100382.63;2640707;88;21145;-89
2022/07/29 09:50:43;;;;;;;4.35;3.00;;;;;;;27.34;48.44;100379.59;2673634;85;21093;-89
2022/07/29 09:54:45;;;;;;;7.35;2.08;;;;;;;27.62;48.54;100373.98;2680469;86;21090;-89
2022/07/29 09:58:46;;;;;;;2.83;1.92;;;;;;;28.15;47.22;100364.50;2653395;87;21591;-87
2022/07/29 10:02:48;;;;;;;8.58;3.00;;;;;;;28.15;47.22;100364.50;2698621;86;21272;-85
2022/07/29 10:07:02;;;;;;;3.75;2.05;;;;;;;28.25;47.42;100361.17;2728897;86;21049;-88
2022/07/29 10:11:18;;;;;;;4.45;2.90;;;;;;;28.28;47.17;100353.84;2695046;86;21078;-88
2022/07/29 10:15:23;;;;;;;3.58;2.77;;;;;;;28.47;47.26;100357.22;2690955;85;21062;-89
2022/07/29 10:19:24;;;;;;;;;;;;;;;28.47;47.26;100357.22;2702407;85;21051;-89
2022/07/29 10:23:27;;;;;;;5.67;2.50;;;;;;;28.49;48.12;100350.95;2698780;86;20104;-88
2022/07/29 10:27:28;;;;;;;2.45;2.12;;;;;;;28.53;47.94;100355.41;2740930;85;21038;-87
2022/07/29 10:31:38;;;;;;;6.22;2.77;;;;;;;28.53;47.94;100355.41;2721249;85;21054;-86
2022/07/29 10:36:06;;;;;;;8.20;3.22;;;;;;;28.60;47.33;100348.72;2652153;88;21146;-88
2022/07/29 10:44:54;;;;;;;11.35;2.72;;;;;;;28.43;47.19;100320.48;2639353;87;21035;-90
2022/07/29 10:49:25;;;;;;;8.45;3.50;;;;;;;28.43;47.19;100320.48;2699022;85;21120;-84
2022/07/29 10:53:51;;;;;;;5.20;2.42;;;;;;;28.32;47.63;100333.98;2678102;87;21044;-89
2022/07/29 10:58:18;;;;;;;2.50;2.30;;;;;;;28.45;47.65;100329.28;2628525;88;21049;-89
2022/07/29 11:02:40;;;;;;;8.35;2.87;;;;;;;28.31;46.71;100306.34;2598400;90;21141;-90
2022/07/29 11:07:07;;;;;;;5.10;2.50;;;;;;;28.41;46.59;100321.27;2627649;89;21089;-89
2022/07/29 11:11:29;;;;;;;4.92;2.17;;;;;;;28.44;47.07;100332.56;2586906;89;21086;-89
2022/07/29 11:15:54;;;;;;;5.20;2.75;;;;;;;28.43;46.33;100330.06;2585159;89;21148;-88
2022/07/29 11:20:34;;;;;;;4.70;1.57;;;;;;;28.52;46.41;100323.14;2599195;90;21700;-90
2022/07/29 11:24:38;;;;;;;4.50;2.20;;;;;;;28.73;46.02;100325.69;2605788;89;21502;-88
2022/07/29 11:29:17;;;;;;;4.40;2.50;;;;;;;28.90;46.19;100305.76;2594849;90;21089;-89
2022/07/29 11:33:33;;;;;;;6.28;2.05;;;;;;;28.91;45.73;100317.84;2626514;88;21609;-89
2022/07/29 11:37:35;;;;;;;2.72;2.00;;;;;;;28.92;46.20;100314.02;2653757;87;21083;-88
2022/07/29 11:41:38;;;;;;;7.20;2.83;;;;;;;28.98;46.01;100310.00;2616527;90;21071;-88
2022/07/29 11:45:46;;;;;;;6.62;2.62;;;;;;;28.84;45.55;100326.73;2699915;86;21070;-88
2022/07/29 11:49:50;;;;;;;3.02;1.95;;;;;;;28.75;46.84;100318.62;2659553;87;21115;-89
2022/07/29 11:53:52;;;;;;;6.05;2.67;;;;;;;29.01;46.84;100310.86;2643654;88;21562;-89
2022/07/29 11:58:00;;;;;;;3.00;2.47;;;;;;;29.18;46.14;100313.06;2704473;87;21499;-89
2022/07/29 12:02:01;;;;;;;2.58;2.37;;;;;;;29.11;45.83;100311.05;2711726;85;21028;-88
2022/07/29 12:06:13;;;;;;;4.60;2.30;;;;;;;29.26;46.03;100309.08;2632350;87;21373;-87
2022/07/29 12:10:15;;;;;;;6.72;2.58;;;;;;;29.18;46.01;100308.95;2672241;86;21046;-88
2022/07/29 12:14:28;;;;;;;4.45;2.70;;;;;;;29.03;46.09;100304.59;2657643;88;21055;-88
2022/07/29 12:18:30;;;;;;;4.80;1.92;;;;;;;28.87;46.63;100311.18;2657711;88;21078;-89
2022/07/29 12:22:40;;;;;;;2.62;2.42;;;;;;;28.93;46.77;100303.36;2680762;85;21110;-88
2022/07/29 12:26:55;;;;;;;8.73;2.35;;;;;;;29.16;46.04;100304.80;2663594;87;21610;-89
2022/07/29 12:30:57;;;;;;;4.62;2.95;;;;;;;29.29;45.34;100291.33;2697052;86;21130;-89
2022/07/29 12:34:59;;;;;;;8.93;2.58;;;;;;;29.18;45.61;100284.83;2669970;87;21081;-89
2022/07/29 12:39:00;;;;;;;4.65;2.65;;;;;;;28.92;45.80;100279.81;2697333;86;21051;-87
2022/07/29 12:43:11;;;;;;;4.15;2.75;;;;;;;28.97;45.89;100279.59;2694381;86;21590;-88
2022/07/29 12:47:13;;;;;;;4.67;2.37;;;;;;;28.93;45.83;100285.57;2717585;85;21039;-88
2022/07/29 12:51:16;;;;;;;4.55;2.40;;;;;;;28.93;46.26;100277.88;2664809;87;21091;-89
2022/07/29 12:55:38;;;;;;;4.83;2.00;;;;;;;28.96;45.96;100274.64;2647567;88;21067;-87
2022/07/29 12:59:39;;;;;;;3.47;2.65;;;;;;;29.00;45.35;100272.25;2615432;88;21062;-88
2022/07/29 13:03:52;;;;;;;4.33;2.25;;;;;;;29.02;45.85;100277.77;2610546;88;21594;-89
2022/07/29 13:07:53;;;;;;;4.97;3.02;;;;;;;29.08;45.79;100271.29;2666362;86;21532;-87
2022/07/29 13:11:55;;;;;;;4.72;2.62;;;;;;;29.20;45.60;100261.61;2631438;88;21506;-88
2022/07/29 13:16:07;;;;;;;5.20;2.42;;;;;;;29.47;45.46;100262.28;2671318;86;21059;-88
2022/07/29 13:20:13;;;;;;;4.72;2.52;;;;;;;29.70;45.23;100257.67;2668553;86;21111;-88
2022/07/29 13:24:14;;;;;;;3.45;2.62;;;;;;;29.74;45.00;100260.19;2664563;87;21079;-87
2022/07/29 13:28:16;;;;;;;7.37;2.80;;;;;;;29.61;45.24;100259.18;2627238;86;21638;-87
2022/07/29 13:32:17;;;;;;;2.15;1.95;;;;;;;29.38;45.21;100251.98;2632112;87;21131;-86
2022/07/29 13:36:19;;;;;;;2.75;2.40;;;;;;;29.26;45.65;100246.61;2696853;86;21672;-88
2022/07/29 13:40:20;;;;;;;22.35;2.92;;;;;;;29.16;45.64;100234.44;2657460;88;21026;-86
2022/07/29 13:44:21;;;;;;;3.02;2.05;;;;;;;29.14;45.57;100231.66;2665546;86;21528;-82
2022/07/29 13:48:23;;;;;;;3.75;2.70;;;;;;;29.18;45.74;100232.28;2657159;87;20999;-84
2022/07/29 13:52:24;;;;;;;3.47;2.20;;;;;;;29.19;45.78;100230.38;2656919;87;21320;-83
2022/07/29 13:56:26;;;;;;;8.33;6.42;;;;;;;29.07;45.71;100231.83;2659087;87;21094;-83
2022/07/29 14:00:28;;;;;;;3.37;3.08;;;;;;;29.00;45.47;100233.39;2656821;88;21062;-87
2022/07/29 14:04:29;;;;;;;7.40;3.00;;;;;;;28.95;45.39;100227.81;2655841;88;21096;-85
2022/07/29 14:08:31;;;;;;;5.58;2.37;;;;;;;28.87;45.55;100232.36;2629463;88;21478;-87
2022/07/29 14:12:33;;;;;;;5.37;2.75;;;;;;;28.83;45.85;100227.91;2675356;88;21063;-87
2022/07/29 14:16:34;;;;;;;4.00;3.10;;;;;;;28.79;45.85;100230.34;2657612;87;21056;-88
2022/07/29 14:20:36;;;;;;;5.05;2.92;;;;;;;28.79;46.16;100230.83;2651077;89;21079;-87
2022/07/29 14:24:38;;;;;;;7.55;3.42;;;;;;;28.76;46.33;100230.78;2671843;86;21034;-87
2022/07/29 14:28:39;;;;;;;5.60;2.30;;;;;;;28.71;46.22;100234.81;2698779;87;21085;-85
2022/07/29 14:32:41;;;;;;;3.20;2.90;;;;;;;28.60;45.96;100228.89;2695856;85;21494;-86
2022/07/29 14:36:43;;;;;;;3.87;3.22;;;;;;;28.63;46.08;100227.84;2645168;86;21086;-87
2022/07/29 14:40:46;;;;;;;2.20;2.00;;;;;;;28.74;46.21;100230.20;2692966;86;21657;-84
2022/07/29 14:44:49;;;;;;;6.92;3.42;;;;;;;28.78;46.47;100225.88;2711364;86;21115;-86
2022/07/29 14:48:52;;;;;;;5.65;2.45;;;;;;;28.83;46.35;100219.70;2644767;88;21574;-83
2022/07/29 14:52:54;;;;;;;3.70;2.50;;;;;;;28.84;46.44;100217.81;2654688;86;21083;-82
2022/07/29 14:57:01;;;;;;;6.55;3.17;;;;;;;28.96;46.39;100209.50;2648249;88;21761;-87
2022/07/29 15:01:07;;;;;;;6.65;2.65;;;;;;;29.14;46.07;100205.64;2622481;88;21491;-88
2022/07/29 15:05:09;;;;;;;5.33;2.62;;;;;;;29.23;45.97;100209.63;2645175;87;21044;-87
2022/07/29 15:09:11;;;;;;;4.55;2.15;;;;;;;29.22;46.12;100208.78;2684001;86;28594;-87
2022/07/29 15:13:13;;;;;;;6.25;2.58;;;;;;;29.29;46.04;100203.68;2635881;88;21052;-88
2022/07/29 15:17:15;;;;;;;3.35;3.02;;;;;;;29.40;45.74;100197.80;2633052;87;21075;-87
2022/07/29 15:21:17;;;;;;;3.83;2.27;;;;;;;29.48;46.08;100199.59;2635413;87;21043;-87
2022/07/29 15:25:19;;;;;;;3.00;2.52;;;;;;;29.38;46.05;100195.83;2597702;89;21443;-86
2022/07/29 15:29:21;;;;;;;7.97;2.15;;;;;;;29.27;46.28;100203.08;2671025;86;21087;-88
2022/07/29 15:33:22;;;;;;;4.20;2.30;;;;;;;29.06;46.70;100200.05;2694473;86;21068;-87
2022/07/29 15:37:24;;;;;;;5.80;2.52;;;;;;;28.94;46.83;100200.16;2655940;86;21461;-88
2022/07/29 15:41:26;;;;;;;5.67;2.92;;;;;;;28.91;47.07;100186.45;2601496;88;21158;-87
2022/07/29 15:45:28;;;;;;;4.92;2.77;;;;;;;28.84;47.17;100187.70;2618823;88;21054;-85
2022/07/29 15:49:36;;;;;;;4.25;2.95;;;;;;;28.96;46.85;100185.67;2709704;85;21067;-86
2022/07/29 15:53:38;;;;;;;5.25;2.72;;;;;;;28.95;46.93;100184.58;2661714;86;21078;-84
2022/07/29 15:57:39;;;;;;;7.87;2.47;;;;;;;28.97;46.97;100185.96;2663174;87;21089;-87
2022/07/29 16:01:41;;;;;;;8.70;2.65;;;;;;;28.90;47.10;100174.38;2669487;88;21076;-88
2022/07/29 16:05:43;;;;;;;6.47;3.02;;;;;;;28.80;47.12;100181.89;2696266;86;21028;-88
2022/07/29 16:09:45;;;;;;;4.85;2.72;;;;;;;28.77;47.20;100173.59;2674590;86;21075;-88
2022/07/29 16:13:46;;;;;;;10.13;2.75;;;;;;;28.76;47.49;100176.05;2658147;88;21050;-88
2022/07/29 16:17:49;;;;;;;3.80;2.80;;;;;;;28.77;47.22;100174.15;2659124;87;21071;-88
2022/07/29 16:21:50;;;;;;;12.37;2.95;;;;;;;28.76;47.51;100171.94;2629804;88;21051;-87
2022/07/29 16:25:53;;;;;;;4.03;2.62;;;;;;;28.72;47.64;100165.87;2677815;86;21043;-89
2022/07/29 16:29:55;;;;;;;7.37;3.67;;;;;;;28.84;47.58;100162.52;2661439;87;21091;-89
2022/07/29 16:33:56;;;;;;;7.50;3.12;;;;;;;28.98;47.46;100153.95;2624057;88;21067;-88
2022/07/29 16:38:00;;;;;;;5.47;3.55;;;;;;;28.97;47.44;100159.14;2676943;87;21115;-88
2022/07/29 16:42:01;;;;;;;4.33;2.02;;;;;;;28.93;47.47;100154.17;2655586;85;21040;-88
2022/07/29 16:46:03;;;;;;;3.37;2.80;;;;;;;28.85;47.57;100152.41;2682623;85;21042;-88
2022/07/29 16:50:06;;;;;;;5.92;2.20;;;;;;;28.69;47.80;100145.82;2684515;87;21067;-88
2022/07/29 16:54:09;;;;;;;5.58;3.20;;;;;;;28.56;48.08;100147.84;2676789;86;21058;-89
2022/07/29 16:58:11;;;;;;;3.65;2.95;;;;;;;28.33;48.61;100155.14;2654264;87;21051;-88
2022/07/29 17:02:13;;;;;;;6.17;3.12;;;;;;;28.33;48.61;100155.14;2658669;86;21039;-88
2022/07/29 17:06:15;;;;;;;14.03;2.85;;;;;;;28.19;48.80;100156.52;2678190;87;21671;-88
2022/07/29 17:10:17;;;;;;;3.27;2.72;;;;;;;28.02;49.38;100159.21;2648561;87;21051;-88
2022/07/29 17:14:23;;;;;;;6.67;3.22;;;;;;;27.96;49.48;100154.19;2669966;87;21071;-86
2022/07/29 17:18:25;;;;;;;9.03;3.15;;;;;;;27.89;49.75;100154.85;2675100;87;21068;-88
2022/07/29 17:22:27;;;;;;;2.72;2.42;;;;;;;27.80;49.88;100156.63;2685276;86;21090;-88
2022/07/29 17:26:28;;;;;;;4.53;2.87;;;;;;;27.71;49.99;100154.52;2669546;87;21075;-88
2022/07/29 17:30:30;;;;;;;4.00;2.37;;;;;;;27.58;50.06;100161.11;2677081;86;21055;-87
2022/07/29 17:34:32;;;;;;;3.70;2.85;;;;;;;27.58;50.06;100161.11;2669336;86;21059;-85
2022/07/29 17:38:33;;;;;;;6.35;2.15;;;;;;;27.58;50.21;100158.38;2658889;88;21103;-87
2022/07/29 17:42:35;;;;;;;5.20;2.80;;;;;;;27.47;50.61;100160.03;2657892;87;21336;-86
2022/07/29 17:46:37;;;;;;;7.95;3.95;;;;;;;27.47;50.61;100160.03;2616095;87;21543;-85
2022/07/29 17:50:39;;;;;;;7.55;4.55;;;;;;;27.27;53.17;100144.04;2753042;82;21161;-93
2022/07/29 17:54:41;;;;;;;13.83;5.45;;;;;;;27.25;55.73;100167.51;2854843;79;72689;-57
2022/07/29 17:58:42;;;;;;;24.40;7.72;;;;;;;27.25;55.73;100167.51;2877223;79;20964;-57
2022/07/29 18:02:45;;;;;;;18.48;7.37;;;;;;;27.20;56.69;100172.31;2920744;79;21027;-59
2022/07/29 18:06:47;;;;;;;13.03;6.28;;;;;;;27.15;57.12;100172.20;2955334;79;21017;-57
2022/07/29 18:10:49;;;;;;;12.63;6.35;;;;;;;27.08;57.18;100172.33;2844143;81;20985;-57
2022/07/29 18:15:06;;;;;;;20.37;7.45;;;;;;;27.02;56.98;100175.17;2890346;80;20973;-58
2022/07/29 18:19:08;;;;;;;30.72;10.15;;;;;;;26.85;58.08;100171.80;2906006;80;21018;-56
2022/07/29 18:23:11;;;;;;;11.55;5.92;;;;;;;26.70;58.38;100164.58;2911123;79;20963;-55
2022/07/29 18:27:13;;;;;;;9.18;4.60;;;;;;;26.52;58.66;100164.45;2884978;81;21049;-56
2022/07/29 18:31:14;;;;;;;14.95;5.80;;;;;;;26.37;58.40;100164.91;2894793;79;69410;-91
2022/07/29 18:35:17;;;;;;;8.70;4.85;;;;;;;26.29;58.40;100167.95;2859530;81;21029;-90
2022/07/29 18:39:18;;;;;;;14.03;5.03;;;;;;;26.15;58.25;100174.66;2861612;81;21052;-92
2022/07/29 18:43:50;;;;;;;12.80;4.78;;;;;;;26.03;58.56;100171.35;2863071;81;21060;-88
2022/07/29 18:47:52;;;;;;;7.35;4.75;;;;;;;25.78;59.76;100187.83;2875438;81;21745;-93
2022/07/29 18:51:55;;;;;;;17.25;5.75;;;;;;;25.36;60.44;100183.08;2860328;81;21131;-92
2022/07/29 18:55:57;;;;;;;45.38;10.23;;;;;;;25.08;60.29;100184.40;2866954;81;21062;-94
2022/07/29 18:59:58;;;;;;;11.88;6.25;;;;;;;24.83;61.23;100183.06;2845142;80;21062;-92
2022/07/29 19:04:00;;;;;;;10.50;5.03;;;;;;;24.56;61.34;100186.80;2823894;82;21041;-91
2022/07/29 19:08:02;;;;;;;10.30;4.58;;;;;;;24.41;61.63;100182.23;2816419;82;21073;-93
2022/07/29 19:12:04;;;;;;;12.43;5.95;;;;;;;24.22;61.81;100188.95;2797932;83;21095;-91
2022/07/29 19:16:10;;;;;;;15.25;5.33;;;;;;;24.05;61.92;100197.61;2782595;83;21007;-91